URSS 052130Z 04002MPS 9999 SCT013 18/17 Q1012 R02/010070 R06/010070 NOSIG RMK R06/07003MPS MT OBSC QFE758
QNH:(hPa/inHg/mmHg)1012 / 29.88 / 759
QFE:(hPa/inHg/mmHg)1009 / 29.79 / 757
Temperature18
Dew Point17
Visibility> 10000
Weather
Cloud CoverSCT (1300);
Transition Altitude13000 ft.
Transition LevelFL150
SQUAWK